8M8 weather

Garland Airport
Lewiston, Michigan, United States

Public forecast

Using degrees Fahrenheit for public forecast. Weather courtesy of forecast.io.

Closest aviation weather report (METAR) to Garland Airport

Closest report is Grayling Army Air Field, 20.7 nm (38.4 km) WSW. Retrieved 2019/10/14 18:58 UTC (27 minutes ago):

KGOV 141858Z AUTO 26008KT 10SM SCT039 SCT050 BKN070 07/00 A2994 RMK AO2 SLP153 T00710004

Closest aviation forecast (TAF) to Garland Airport

Closest forecast is Alpena County Regional Airport, 34.5 nm (63.9 km) ENE. Retrieved 2019/10/14 18:27 UTC (58 minutes ago):

TAF KAPN 141724Z 1418/1518 24011G20KT P6SM VCSH SCT030 BKN045 FM142300 26007KT P6SM SCT040 FM150200 23005KT P6SM FEW050 SCT250 FM151100 VRB03KT P6SM BKN120 FM151700 16007KT P6SM OVC080